createdAt,value
2019-04-05T00:01:35.194Z,12.70
2019-04-05T00:04:08.340Z,12.70
2019-04-05T00:06:39.372Z,12.60
2019-04-05T00:09:10.539Z,12.60
2019-04-05T00:11:41.533Z,12.50
2019-04-05T00:14:17.123Z,12.50
2019-04-05T00:16:48.627Z,12.50
2019-04-05T00:19:19.129Z,12.50
2019-04-05T00:21:50.339Z,12.70
2019-04-05T00:24:21.401Z,12.70
2019-04-05T00:26:53.292Z,12.70
2019-04-05T00:29:25.824Z,12.70
2019-04-05T00:31:55.770Z,12.70
2019-04-05T00:34:28.260Z,12.70
2019-04-05T00:36:59.469Z,12.70
2019-04-05T00:39:31.410Z,12.70
2019-04-05T00:42:04.161Z,12.70
2019-04-05T00:44:35.316Z,12.70
2019-04-05T00:47:07.695Z,12.70
2019-04-05T00:49:41.235Z,12.70
2019-04-05T00:52:14.605Z,12.70
2019-04-05T00:54:48.426Z,12.70
2019-04-05T00:57:22.020Z,12.70
2019-04-05T00:59:54.423Z,12.60
2019-04-05T01:02:27.059Z,12.50
2019-04-05T01:04:57.191Z,12.50
2019-04-05T01:07:29.763Z,12.40
2019-04-05T01:10:03.358Z,12.40
2019-04-05T01:12:34.246Z,12.30
2019-04-05T01:15:07.989Z,12.30
2019-04-05T01:17:41.012Z,12.30
2019-04-05T01:20:11.526Z,12.20
2019-04-05T01:22:44.110Z,12.20
2019-04-05T01:25:15.781Z,12.20
2019-04-05T01:27:48.460Z,12.10
2019-04-05T01:30:20.613Z,12.10
2019-04-05T01:32:53.235Z,12.10
2019-04-05T01:35:26.804Z,12.10
2019-04-05T01:38:01.751Z,12.10
2019-04-05T01:40:34.037Z,12.20
2019-04-05T01:43:08.356Z,12.20
2019-04-05T01:45:52.707Z,12.10
2019-04-05T01:48:14.583Z,12.00
2019-04-05T01:50:47.251Z,11.80
2019-04-05T01:53:18.399Z,11.70
2019-04-05T01:55:52.300Z,11.60
2019-04-05T01:58:25.826Z,11.50
2019-04-05T02:00:58.463Z,11.30
2019-04-05T02:03:29.986Z,11.20
2019-04-05T02:06:00.391Z,11.00
2019-04-05T02:08:30.539Z,10.90
2019-04-05T02:11:03.235Z,10.90
2019-04-05T02:13:34.370Z,10.80
2019-04-05T02:16:07.795Z,10.70
2019-04-05T02:18:38.679Z,10.70
2019-04-05T02:21:10.090Z,10.70
2019-04-05T02:23:40.098Z,10.60
2019-04-05T02:26:11.560Z,10.50
2019-04-05T02:28:43.027Z,10.60
2019-04-05T02:31:13.033Z,10.60
2019-04-05T02:33:46.500Z,10.50
2019-04-05T02:36:19.366Z,10.50
2019-04-05T02:38:52.254Z,10.50
2019-04-05T02:41:28.677Z,10.40
2019-04-05T02:44:04.714Z,10.40
2019-04-05T02:46:37.168Z,10.40
2019-04-05T02:49:29.321Z,10.30
2019-04-05T02:52:01.736Z,10.20
2019-04-05T02:54:34.196Z,10.20
2019-04-05T02:57:04.687Z,10.20
2019-04-05T02:59:36.786Z,10.10
2019-04-05T03:02:07.236Z,10.00
2019-04-05T03:04:38.461Z,9.90
2019-04-05T03:07:09.081Z,9.90
2019-04-05T03:09:40.618Z,9.80
2019-04-05T03:12:12.047Z,9.70
2019-04-05T03:14:44.490Z,9.70
2019-04-05T03:17:17.574Z,9.70
2019-04-05T03:19:53.875Z,9.60
2019-04-05T03:22:26.782Z,9.60
2019-04-05T03:25:03.115Z,9.60
2019-04-05T03:27:37.433Z,9.60
2019-04-05T03:30:11.924Z,9.60
2019-04-05T03:32:47.001Z,9.50
2019-04-05T03:35:19.486Z,9.50
2019-04-05T03:37:49.601Z,9.40
2019-04-05T03:40:20.880Z,9.40
2019-04-05T03:42:55.630Z,9.30
2019-04-05T03:45:27.387Z,9.20
2019-04-05T03:47:58.419Z,9.30
2019-04-05T03:50:31.451Z,9.20
2019-04-05T03:53:05.298Z,9.20
2019-04-05T03:55:38.113Z,9.10
2019-04-05T03:58:09.767Z,9.10
2019-04-05T04:00:41.169Z,9.00
2019-04-05T04:03:12.546Z,9.00
2019-04-05T04:05:43.727Z,9.00
2019-04-05T04:08:16.285Z,9.00
2019-04-05T04:10:49.953Z,9.00
2019-04-05T04:13:20.649Z,9.00
2019-04-05T04:15:53.553Z,8.90
2019-04-05T04:18:24.963Z,8.90
2019-04-05T04:21:05.651Z,8.90
2019-04-05T04:23:51.868Z,8.80
2019-04-05T04:26:23.723Z,8.80
2019-04-05T04:28:56.300Z,8.80
2019-04-05T04:31:28.669Z,8.80
2019-04-05T04:34:01.337Z,8.90
2019-04-05T04:36:35.972Z,8.80
2019-04-05T04:39:16.623Z,8.80
2019-04-05T04:41:53.588Z,8.80
2019-04-05T04:44:28.203Z,8.90
2019-04-05T04:46:58.655Z,9.00
2019-04-05T04:49:30.622Z,9.00
2019-04-05T04:52:02.640Z,8.90
2019-04-05T04:54:35.587Z,9.00
2019-04-05T04:57:08.702Z,8.90
2019-04-05T04:59:41.918Z,8.90
2019-04-05T05:02:14.702Z,8.90
2019-04-05T05:04:48.931Z,9.00
2019-04-05T05:07:20.652Z,9.10
2019-04-05T05:09:58.595Z,9.10
2019-04-05T05:12:36.139Z,9.20
2019-04-05T05:15:08.200Z,9.20
2019-04-05T05:17:39.151Z,9.30
2019-04-05T05:20:12.781Z,9.50
2019-04-05T05:22:43.114Z,9.60
2019-04-05T05:25:14.863Z,9.80
2019-04-05T05:27:48.627Z,9.90
2019-04-05T05:30:19.976Z,10.10
2019-04-05T05:32:53.073Z,10.10
2019-04-05T05:35:24.754Z,10.20
2019-04-05T05:37:56.376Z,10.40
2019-04-05T05:40:34.842Z,10.60
2019-04-05T05:43:00.680Z,10.80
2019-04-05T05:45:50.958Z,10.90
2019-04-05T05:48:23.818Z,11.10
2019-04-05T05:50:54.062Z,11.30
2019-04-05T05:53:25.508Z,11.40
2019-04-05T05:55:56.713Z,11.60
2019-04-05T05:58:29.809Z,11.70
2019-04-05T06:01:03.856Z,11.90
2019-04-05T06:03:36.414Z,12.00
2019-04-05T06:06:09.683Z,12.20
2019-04-05T06:08:41.195Z,12.30
2019-04-05T06:11:13.596Z,12.50
2019-04-05T06:13:46.728Z,12.60
2019-04-05T06:16:19.250Z,12.80
2019-04-05T06:18:55.158Z,12.80
2019-04-05T06:21:28.750Z,13.00
2019-04-05T06:24:00.478Z,13.10
2019-04-05T06:26:37.071Z,13.20
2019-04-05T06:29:08.474Z,13.30
2019-04-05T06:31:38.744Z,13.40
2019-04-05T06:34:08.953Z,13.60
2019-04-05T06:36:41.620Z,13.70
2019-04-05T06:39:11.914Z,13.90
2019-04-05T06:41:47.016Z,14.00
2019-04-05T06:44:18.586Z,14.10
2019-04-05T06:46:49.506Z,14.30
2019-04-05T06:49:22.597Z,14.40
2019-04-05T06:51:53.982Z,14.50
2019-04-05T06:54:27.105Z,14.60
2019-04-05T06:57:02.481Z,14.80
2019-04-05T06:59:39.144Z,14.80
2019-04-05T07:02:11.092Z,14.90
2019-04-05T07:04:43.863Z,14.90
2019-04-05T07:07:17.747Z,15.10
2019-04-05T07:09:50.249Z,15.20
2019-04-05T07:12:20.985Z,15.30
2019-04-05T07:14:51.098Z,15.40
2019-04-05T07:17:23.738Z,15.70
2019-04-05T07:19:56.295Z,15.80
2019-04-05T07:22:38.430Z,16.00
2019-04-05T07:25:02.548Z,16.20
2019-04-05T07:27:32.549Z,16.30
2019-04-05T07:30:04.715Z,16.50
2019-04-05T07:32:37.358Z,16.70
2019-04-05T07:35:09.620Z,16.80
2019-04-05T07:37:39.213Z,17.10
2019-04-05T07:40:09.832Z,17.30
2019-04-05T07:42:46.833Z,17.50
2019-04-05T07:45:19.424Z,17.90
2019-04-05T07:47:50.991Z,18.30
2019-04-05T07:50:23.739Z,18.40
2019-04-05T07:52:57.594Z,18.80
2019-04-05T07:55:30.293Z,18.90
2019-04-05T07:58:01.428Z,19.00
2019-04-05T08:00:45.624Z,19.30
2019-04-05T08:03:19.127Z,19.30
2019-04-05T08:05:51.290Z,19.50
2019-04-05T08:08:32.597Z,19.60
2019-04-05T08:11:06.752Z,19.90
2019-04-05T08:16:14.297Z,20.10
2019-04-05T08:18:57.086Z,20.30
2019-04-05T08:21:22.111Z,20.50
2019-04-05T08:23:53.782Z,20.80
2019-04-05T08:26:27.277Z,21.00
2019-04-05T08:28:58.626Z,20.90
2019-04-05T08:31:29.592Z,21.10
2019-04-05T08:33:59.824Z,21.20
2019-04-05T08:36:32.830Z,21.50
2019-04-05T08:39:04.230Z,21.80
2019-04-05T08:41:36.904Z,22.20
2019-04-05T08:44:10.318Z,22.50
2019-04-05T08:46:43.033Z,22.50
2019-04-05T08:49:16.303Z,22.60
2019-04-05T08:51:46.876Z,22.70
2019-04-05T08:54:33.207Z,22.80
2019-04-05T08:57:01.129Z,23.20
2019-04-05T08:59:32.226Z,23.60
2019-04-05T09:02:03.382Z,23.80
2019-04-05T09:04:37.719Z,23.60
2019-04-05T09:07:15.189Z,23.60
2019-04-05T09:09:46.289Z,24.20
2019-04-05T09:12:18.709Z,24.50
2019-04-05T09:14:50.596Z,24.20
2019-04-05T09:17:24.265Z,24.40
2019-04-05T09:19:56.911Z,24.80
2019-04-05T09:22:29.529Z,24.40
2019-04-05T09:25:02.118Z,24.70
2019-04-05T09:27:33.329Z,25.30
2019-04-05T09:30:03.416Z,25.60
2019-04-05T09:32:36.574Z,25.60
2019-04-05T09:35:10.029Z,25.60
2019-04-05T09:37:41.668Z,25.80
2019-04-05T09:40:14.184Z,25.40
2019-04-05T09:45:23.826Z,24.90
2019-04-05T09:47:55.495Z,24.90
2019-04-05T09:50:25.684Z,24.80
2019-04-05T09:52:56.059Z,25.10
2019-04-05T09:55:26.025Z,25.40
2019-04-05T09:57:57.992Z,25.80
2019-04-05T10:03:18.699Z,26.30
2019-04-05T10:05:50.403Z,26.70
2019-04-05T10:08:20.582Z,27.00
2019-04-05T10:10:52.038Z,27.10
2019-04-05T10:13:24.817Z,26.40
2019-04-05T10:15:56.092Z,27.30
2019-04-05T10:18:27.037Z,27.60
2019-04-05T10:20:57.274Z,27.00
2019-04-05T10:23:30.552Z,27.60
2019-04-05T10:26:03.469Z,28.00
2019-04-05T10:28:35.956Z,27.70
2019-04-05T10:31:06.985Z,26.70
2019-04-05T10:33:39.694Z,26.70
2019-04-05T10:36:10.920Z,27.50
2019-04-05T10:38:40.969Z,27.90
2019-04-05T10:41:13.631Z,27.00
2019-04-05T10:43:46.587Z,27.20
2019-04-05T10:46:38.863Z,27.50
2019-04-05T10:49:14.931Z,27.20
2019-04-05T10:52:05.786Z,27.10
2019-04-05T10:54:36.994Z,27.80
2019-04-05T10:57:08.067Z,28.70
2019-04-05T10:59:39.278Z,29.10
2019-04-05T11:02:12.023Z,29.20
2019-04-05T11:04:43.937Z,29.40
2019-04-05T11:07:15.362Z,29.20
2019-04-05T11:09:47.899Z,29.30
2019-04-05T11:12:17.928Z,29.40
2019-04-05T11:14:50.656Z,29.70
2019-04-05T11:17:23.123Z,29.60
2019-04-05T11:19:56.108Z,29.10
2019-04-05T11:22:27.138Z,28.50
2019-04-05T11:25:00.280Z,28.40
2019-04-05T11:27:31.767Z,29.40
2019-04-05T11:30:01.851Z,29.20
2019-04-05T11:32:34.963Z,29.80
2019-04-05T11:35:08.015Z,30.00
2019-04-05T11:37:40.080Z,30.10
2019-04-05T11:40:14.354Z,30.20
2019-04-05T11:42:48.811Z,30.10
2019-04-05T11:45:22.991Z,30.30
2019-04-05T11:47:55.690Z,30.10
2019-04-05T11:50:34.600Z,30.10
2019-04-05T11:55:33.702Z,30.80
2019-04-05T11:58:09.358Z,30.70
2019-04-05T12:08:26.218Z,29.90
2019-04-05T12:11:00.417Z,30.30
2019-04-05T12:13:32.731Z,31.00
2019-04-05T12:16:06.061Z,30.60
2019-04-05T12:18:39.029Z,30.00
2019-04-05T12:21:12.979Z,30.20
2019-04-05T12:23:44.787Z,30.20
2019-04-05T12:26:16.114Z,31.00
2019-04-05T12:28:49.852Z,31.50
2019-04-05T12:31:24.958Z,31.20
2019-04-05T12:33:57.500Z,31.30
2019-04-05T12:39:21.414Z,31.80
2019-04-05T12:41:52.579Z,32.30
2019-04-05T12:44:24.278Z,32.40
2019-04-05T12:49:45.209Z,32.40
2019-04-05T12:52:22.649Z,31.40
2019-04-05T12:54:54.643Z,31.00
2019-04-05T12:59:59.363Z,31.00
2019-04-05T13:02:34.148Z,30.00
2019-04-05T13:05:06.818Z,30.30
2019-04-05T13:07:42.306Z,31.20
2019-04-05T13:10:17.074Z,30.90
2019-04-05T13:12:51.904Z,30.30
2019-04-05T13:15:23.565Z,30.60
2019-04-05T13:17:56.162Z,30.80
2019-04-05T13:20:31.006Z,30.10
2019-04-05T13:23:06.563Z,30.60
2019-04-05T13:25:40.976Z,30.80
2019-04-05T13:28:15.782Z,30.70
2019-04-05T13:30:48.249Z,29.70
2019-04-05T13:33:23.608Z,30.00
2019-04-05T13:35:58.207Z,29.30
2019-04-05T13:38:30.731Z,29.10
2019-04-05T13:41:01.585Z,28.80
2019-04-05T13:43:33.046Z,29.90
2019-04-05T13:46:05.346Z,30.20
2019-04-05T13:48:39.667Z,30.00
2019-04-05T13:51:12.197Z,29.40
2019-04-05T13:53:45.599Z,28.20
2019-04-05T13:56:17.954Z,27.10
2019-04-05T13:58:50.226Z,26.40
2019-04-05T14:01:23.153Z,26.40
2019-04-05T14:03:54.852Z,26.10
2019-04-05T14:06:24.664Z,25.90
2019-04-05T14:08:55.695Z,25.80
2019-04-05T14:11:26.109Z,25.90
2019-04-05T14:13:56.218Z,26.10
2019-04-05T14:16:27.516Z,26.20
2019-04-05T14:18:59.489Z,26.50
2019-04-05T14:21:39.753Z,27.10
2019-04-05T14:24:04.214Z,26.70
2019-04-05T14:26:37.506Z,25.90
2019-04-05T14:29:07.545Z,25.40
2019-04-05T14:31:38.680Z,25.00
2019-04-05T14:34:08.602Z,24.60
2019-04-05T14:36:47.338Z,24.40
2019-04-05T14:39:20.093Z,24.20
2019-04-05T14:41:54.773Z,24.20
2019-04-05T14:44:27.564Z,24.80
2019-04-05T14:46:58.248Z,25.70
2019-04-05T14:49:31.603Z,25.50
2019-04-05T14:52:05.392Z,25.80
2019-04-05T14:54:35.273Z,25.60
2019-04-05T14:57:07.682Z,24.60
2019-04-05T14:59:40.149Z,23.30
2019-04-05T15:02:10.855Z,22.40
2019-04-05T15:04:41.059Z,21.80
2019-04-05T15:07:12.552Z,21.40
2019-04-05T15:09:42.481Z,21.00
2019-04-05T15:12:15.235Z,20.80
2019-04-05T15:14:46.150Z,21.00
2019-04-05T15:17:19.180Z,21.30
2019-04-05T15:19:52.334Z,21.50
2019-04-05T15:22:27.451Z,21.40
2019-04-05T15:24:56.641Z,21.60
2019-04-05T15:27:28.879Z,22.00
2019-04-05T15:29:58.153Z,22.30
2019-04-05T15:32:29.470Z,22.50
2019-04-05T15:37:37.329Z,22.50
2019-04-05T15:42:44.556Z,22.60
2019-04-05T15:45:19.055Z,22.80
2019-04-05T15:47:52.388Z,22.80
2019-04-05T15:50:24.550Z,22.80
2019-04-05T15:52:55.496Z,22.60
2019-04-05T16:00:47.025Z,21.80
2019-04-05T16:03:22.357Z,21.60
2019-04-05T16:05:58.679Z,21.40
2019-04-05T16:08:32.912Z,21.40
2019-04-05T16:16:15.604Z,21.30
2019-04-05T16:18:51.471Z,21.10
2019-04-05T16:21:27.711Z,21.00
2019-04-05T16:24:00.574Z,20.90
2019-04-05T16:29:08.964Z,20.80
2019-04-05T16:34:12.533Z,20.80
2019-04-05T16:36:48.756Z,20.90
2019-04-05T16:39:21.804Z,20.80
2019-04-05T16:42:10.898Z,20.70
2019-04-05T16:44:47.572Z,20.70
2019-04-05T16:47:26.443Z,20.70
2019-04-05T16:49:57.710Z,20.50
2019-04-05T16:52:44.262Z,20.30
2019-04-05T16:55:08.162Z,20.20
2019-04-05T16:57:40.214Z,20.10
2019-04-05T17:00:15.768Z,20.00
2019-04-05T17:02:48.018Z,19.90
2019-04-05T17:05:24.568Z,19.90
2019-04-05T17:08:00.970Z,19.70
2019-04-05T17:10:36.064Z,19.50
2019-04-05T17:13:14.712Z,19.50
2019-04-05T17:18:37.618Z,19.30
2019-04-05T17:21:07.231Z,19.20
2019-04-05T17:23:40.705Z,19.10
2019-04-05T17:26:12.471Z,19.00
2019-04-05T17:28:43.384Z,19.00
2019-04-05T17:31:15.294Z,19.00
2019-04-05T17:33:46.506Z,18.90
2019-04-05T17:36:16.977Z,18.90
2019-04-05T17:38:46.863Z,18.80
2019-04-05T17:41:21.464Z,18.90
2019-04-05T17:44:02.584Z,18.80
2019-04-05T17:46:39.353Z,18.80
2019-04-05T17:49:11.333Z,18.80
2019-04-05T17:51:44.513Z,18.80
2019-04-05T17:54:18.930Z,18.70
2019-04-05T17:56:52.207Z,18.40
2019-04-05T17:59:26.092Z,18.20
2019-04-05T18:02:01.222Z,18.10
2019-04-05T18:04:33.130Z,17.90
2019-04-05T18:07:06.581Z,17.90
2019-04-05T18:09:40.506Z,17.80
2019-04-05T18:12:15.453Z,17.70
2019-04-05T18:14:50.014Z,17.70
2019-04-05T18:20:11.524Z,17.60
2019-04-05T18:22:45.129Z,17.60
2019-04-05T18:25:19.257Z,17.80
2019-04-05T18:27:52.745Z,17.70
2019-04-05T18:30:24.601Z,17.70
2019-04-05T18:32:59.315Z,17.70
2019-04-05T18:35:34.522Z,17.60
2019-04-05T18:38:08.100Z,17.50
2019-04-05T18:40:42.985Z,17.40
2019-04-05T18:43:18.721Z,17.40
2019-04-05T18:45:49.932Z,17.30
2019-04-05T18:48:19.882Z,17.20
2019-04-05T18:50:54.340Z,17.20
2019-04-05T18:53:37.095Z,17.20
2019-04-05T18:55:59.577Z,17.20
2019-04-05T18:58:31.993Z,17.10
2019-04-05T19:01:03.746Z,17.10
2019-04-05T19:03:35.426Z,17.10
2019-04-05T19:06:08.262Z,17.10
2019-04-05T19:08:42.095Z,17.10
2019-04-05T19:11:15.655Z,17.00
2019-04-05T19:14:00.364Z,16.90
2019-04-05T19:16:21.656Z,16.70
2019-04-05T19:18:55.563Z,16.70
2019-04-05T19:21:32.933Z,16.60
2019-04-05T19:24:05.674Z,16.50
2019-04-05T19:26:36.828Z,16.50
2019-04-05T19:29:06.884Z,16.40
2019-04-05T19:49:29.043Z,16.10
2019-04-05T19:52:01.699Z,16.00
2019-04-05T19:54:32.764Z,16.00
2019-04-05T19:57:04.499Z,15.90
2019-04-05T19:59:35.774Z,15.90
2019-04-05T20:02:11.613Z,15.80
2019-04-05T20:04:45.831Z,15.70
2019-04-05T20:07:37.506Z,15.70
2019-04-05T20:10:07.563Z,15.60
2019-04-05T20:12:38.475Z,15.60
2019-04-05T20:15:11.772Z,15.60
2019-04-05T20:17:46.046Z,15.60
2019-04-05T20:20:17.571Z,15.50
2019-04-05T20:25:23.028Z,15.50
2019-04-05T20:27:56.772Z,15.50
2019-04-05T20:30:28.895Z,15.50
2019-04-05T20:32:59.400Z,15.50
2019-04-05T20:35:30.568Z,15.40
2019-04-05T20:38:06.444Z,15.30
2019-04-05T20:40:40.198Z,15.30
2019-04-05T20:43:12.687Z,15.30
2019-04-05T20:48:21.029Z,15.20
2019-04-05T20:50:54.229Z,15.00
2019-04-05T20:53:26.960Z,14.90
2019-04-05T20:56:00.060Z,14.90
2019-04-05T21:01:03.499Z,14.80
2019-04-05T21:03:38.429Z,14.80
2019-04-05T21:06:10.086Z,14.70
2019-04-05T21:08:40.067Z,14.60
2019-04-05T21:11:13.803Z,14.50
2019-04-05T21:13:46.482Z,14.30
2019-04-05T21:16:15.942Z,14.20
2019-04-05T21:18:49.496Z,14.10
2019-04-05T21:21:21.836Z,14.00
2019-04-05T21:23:52.932Z,14.00
2019-04-05T21:26:23.964Z,13.90
2019-04-05T21:28:58.228Z,13.80
2019-04-05T21:31:30.721Z,13.70
2019-04-05T21:34:03.187Z,13.60
2019-04-05T21:36:34.249Z,13.40
2019-04-05T21:39:06.961Z,13.30
2019-04-05T21:41:38.135Z,13.20
2019-04-05T21:44:08.183Z,13.10
2019-04-05T21:46:40.084Z,13.00
2019-04-05T21:49:13.214Z,12.90
2019-04-05T21:51:43.261Z,12.80
2019-04-05T21:54:15.741Z,12.80
2019-04-05T21:56:48.215Z,12.70
2019-04-05T21:59:18.317Z,12.60
2019-04-05T22:01:48.949Z,12.50
2019-04-05T22:04:21.240Z,12.40
2019-04-05T22:06:52.765Z,12.40
2019-04-05T22:09:25.580Z,12.40
2019-04-05T22:11:55.564Z,12.40
2019-04-05T22:14:26.597Z,12.40
2019-04-05T22:16:59.065Z,12.40
2019-04-05T22:19:31.681Z,12.30
2019-04-05T22:22:04.470Z,12.10
2019-04-05T22:24:37.259Z,11.90
2019-04-05T22:27:08.486Z,11.80
2019-04-05T22:29:38.452Z,11.70
2019-04-05T22:32:13.492Z,11.60
2019-04-05T22:34:44.982Z,11.50
2019-04-05T22:37:16.166Z,11.30
2019-04-05T22:39:47.288Z,11.30
2019-04-05T22:42:17.888Z,11.30
2019-04-05T22:44:49.092Z,11.40
2019-04-05T22:47:20.208Z,11.40
2019-04-05T22:49:50.208Z,11.40
2019-04-05T22:52:23.746Z,11.50
2019-04-05T22:54:57.908Z,11.40
2019-04-05T22:57:27.955Z,11.30
2019-04-05T22:59:59.044Z,11.30
2019-04-05T23:02:32.224Z,11.20
2019-04-05T23:05:03.887Z,11.20
2019-04-05T23:07:36.104Z,11.10
2019-04-05T23:10:11.631Z,11.00
2019-04-05T23:12:44.083Z,10.90
2019-04-05T23:15:14.443Z,10.90
2019-04-05T23:17:47.264Z,10.80
2019-04-05T23:20:22.026Z,10.80
2019-04-05T23:22:57.168Z,10.70
2019-04-05T23:25:29.303Z,10.60
2019-04-05T23:28:01.730Z,10.60
2019-04-05T23:30:35.679Z,10.50
2019-04-05T23:33:10.871Z,10.40
2019-04-05T23:35:41.823Z,10.30
2019-04-05T23:38:11.969Z,10.30
2019-04-05T23:40:47.227Z,10.30
2019-04-05T23:43:18.250Z,10.20
2019-04-05T23:45:49.451Z,10.20
2019-04-05T23:48:21.696Z,10.10
2019-04-05T23:50:52.854Z,10.00
2019-04-05T23:53:25.336Z,9.90
2019-04-05T23:55:56.724Z,9.80
2019-04-05T23:58:29.236Z,9.80
